createdAt,value
2019-02-23T00:04:04.610Z,100.00
2019-02-23T00:19:10.016Z,100.00
2019-02-23T00:34:13.406Z,100.00
2019-02-23T00:49:16.033Z,100.00
2019-02-23T01:04:20.204Z,100.00
2019-02-23T01:19:23.418Z,100.00
2019-02-23T01:34:27.747Z,100.00
2019-02-23T01:49:30.324Z,100.00
2019-02-23T02:04:34.656Z,100.00
2019-02-23T02:19:37.646Z,100.00
2019-02-23T02:34:41.635Z,100.00
2019-02-23T02:49:44.277Z,100.00
2019-02-23T03:04:46.839Z,100.00
2019-02-23T03:19:50.541Z,100.00
2019-02-23T03:34:53.121Z,100.00
2019-02-23T03:49:55.712Z,100.00
2019-02-23T04:04:58.844Z,100.00
2019-02-23T04:20:04.299Z,100.00
2019-02-23T04:35:07.840Z,100.00
2019-02-23T04:50:13.075Z,100.00
2019-02-23T05:05:15.769Z,100.00
2019-02-23T05:20:18.351Z,98.76
2019-02-23T05:35:21.702Z,100.00
2019-02-23T05:50:24.278Z,96.41
2019-02-23T06:05:26.840Z,96.75
2019-02-23T06:20:29.410Z,93.16
2019-02-23T06:35:32.060Z,94.01
2019-02-23T06:50:34.619Z,94.14
2019-02-23T07:05:39.815Z,91.71
2019-02-23T07:20:44.749Z,84.28
2019-02-23T07:35:48.925Z,82.54
2019-02-23T07:50:52.637Z,80.57
2019-02-23T08:05:56.991Z,82.82
2019-02-23T08:21:02.238Z,77.25
2019-02-23T08:36:04.813Z,74.96
2019-02-23T08:51:09.025Z,70.45
2019-02-23T09:06:12.477Z,68.78
2019-02-23T09:21:18.315Z,67.79
2019-02-23T09:36:20.931Z,60.90
2019-02-23T09:51:24.913Z,58.72
2019-02-23T10:06:27.484Z,61.88
2019-02-23T10:21:32.137Z,66.90
2019-02-23T10:36:35.276Z,68.42
2019-02-23T10:51:38.659Z,64.13
2019-02-23T11:06:42.432Z,65.21
2019-02-23T11:21:45.363Z,61.75
2019-02-23T11:36:47.934Z,66.06
2019-02-23T11:51:51.292Z,64.05
2019-02-23T12:06:53.876Z,63.50
2019-02-23T12:21:57.805Z,64.63
2019-02-23T12:37:01.557Z,63.60
2019-02-23T12:52:04.142Z,62.09
2019-02-23T13:07:06.795Z,65.07
2019-02-23T13:22:24.533Z,64.26
2019-02-23T13:37:40.155Z,63.71
2019-02-23T14:08:39.215Z,64.73
2019-02-23T14:23:51.448Z,66.25
2019-02-23T14:55:04.754Z,68.50
2019-02-23T15:10:26.802Z,69.53
2019-02-23T15:41:27.252Z,71.77
2019-02-23T15:56:30.939Z,73.01
2019-02-23T16:11:33.522Z,74.11
2019-02-23T16:26:38.850Z,74.51
2019-02-23T16:41:44.256Z,73.99
2019-02-23T16:56:46.820Z,73.55
2019-02-23T17:11:50.204Z,73.89
2019-02-23T17:26:52.785Z,71.32
2019-02-23T17:41:56.151Z,72.09
2019-02-23T17:57:01.120Z,72.42
2019-02-23T18:12:03.767Z,74.73
2019-02-23T18:27:08.462Z,72.72
2019-02-23T18:42:11.250Z,71.47
2019-02-23T18:57:13.915Z,72.65
2019-02-23T19:12:16.504Z,72.84
2019-02-23T19:27:19.069Z,74.23
2019-02-23T19:42:21.680Z,74.91
2019-02-23T19:57:24.348Z,75.32
2019-02-23T20:12:28.275Z,75.99
2019-02-23T20:27:31.106Z,74.63
2019-02-23T20:42:33.770Z,75.38
2019-02-23T20:57:36.508Z,77.23
2019-02-23T21:12:39.987Z,79.05
2019-02-23T21:27:42.591Z,77.81
2019-02-23T21:42:45.265Z,78.01
2019-02-23T21:57:49.169Z,77.22
2019-02-23T22:12:52.573Z,78.90
2019-02-23T22:27:55.544Z,76.14
2019-02-23T22:42:59.187Z,75.37
2019-02-23T22:58:01.927Z,74.13
2019-02-23T23:13:05.349Z,74.50
2019-02-23T23:28:12.296Z,76.49
2019-02-23T23:43:14.872Z,76.73
2019-02-23T23:58:18.664Z,77.74
